sensor_id;sensor_type;location;lat;lon;timestamp;P1;durP1;ratioP1;P2;durP2;ratioP2
6143;SDS011;3103;49.492;8.474;2022-08-14T00:02:00;4.88;;;3.63;;
6143;SDS011;3103;49.492;8.474;2022-08-14T00:04:30;4.88;;;4.10;;
6143;SDS011;3103;49.492;8.474;2022-08-14T00:07:08;4.35;;;3.50;;
6143;SDS011;3103;49.492;8.474;2022-08-14T00:09:39;5.18;;;3.88;;
6143;SDS011;3103;49.492;8.474;2022-08-14T00:12:32;5.55;;;3.45;;
6143;SDS011;3103;49.492;8.474;2022-08-14T00:15:29;6.68;;;4.13;;
6143;SDS011;3103;49.492;8.474;2022-08-14T00:18:10;4.80;;;3.70;;
6143;SDS011;3103;49.492;8.474;2022-08-14T00:20:40;5.47;;;3.33;;
6143;SDS011;3103;49.492;8.474;2022-08-14T00:23:09;4.20;;;3.63;;
6143;SDS011;3103;49.492;8.474;2022-08-14T00:25:47;3.78;;;3.38;;
6143;SDS011;3103;49.492;8.474;2022-08-14T00:28:32;3.90;;;3.50;;
6143;SDS011;3103;49.492;8.474;2022-08-14T00:31:01;6.07;;;3.63;;
6143;SDS011;3103;49.492;8.474;2022-08-14T00:33:30;4.28;;;3.15;;
6143;SDS011;3103;49.492;8.474;2022-08-14T00:36:17;3.78;;;3.38;;
6143;SDS011;3103;49.492;8.474;2022-08-14T00:39:05;4.45;;;3.17;;
6143;SDS011;3103;49.492;8.474;2022-08-14T00:41:35;5.15;;;3.67;;
6143;SDS011;3103;49.492;8.474;2022-08-14T00:44:04;6.40;;;3.60;;
6143;SDS011;3103;49.492;8.474;2022-08-14T00:46:32;3.75;;;3.22;;
6143;SDS011;3103;49.492;8.474;2022-08-14T00:48:59;3.40;;;3.10;;
6143;SDS011;3103;49.492;8.474;2022-08-14T00:51:27;4.30;;;3.05;;
6143;SDS011;3103;49.492;8.474;2022-08-14T00:54:06;4.30;;;3.10;;
6143;SDS011;3103;49.492;8.474;2022-08-14T00:59:37;4.03;;;3.50;;
6143;SDS011;3103;49.492;8.474;2022-08-14T01:02:05;3.25;;;2.95;;
6143;SDS011;3103;49.492;8.474;2022-08-14T01:04:36;4.25;;;3.47;;
6143;SDS011;3103;49.492;8.474;2022-08-14T01:07:20;4.13;;;3.72;;
6143;SDS011;3103;49.492;8.474;2022-08-14T01:09:50;5.00;;;3.88;;
6143;SDS011;3103;49.492;8.474;2022-08-14T01:12:22;5.45;;;3.38;;
6143;SDS011;3103;49.492;8.474;2022-08-14T01:14:59;3.58;;;3.25;;
6143;SDS011;3103;49.492;8.474;2022-08-14T01:17:30;5.40;;;3.40;;
6143;SDS011;3103;49.492;8.474;2022-08-14T01:20:19;5.32;;;4.00;;
6143;SDS011;3103;49.492;8.474;2022-08-14T01:23:10;4.07;;;3.67;;
6143;SDS011;3103;49.492;8.474;2022-08-14T01:25:48;5.25;;;3.75;;
6143;SDS011;3103;49.492;8.474;2022-08-14T01:28:17;5.20;;;4.03;;
6143;SDS011;3103;49.492;8.474;2022-08-14T01:31:13;4.40;;;4.00;;
6143;SDS011;3103;49.492;8.474;2022-08-14T01:33:45;5.80;;;4.13;;
6143;SDS011;3103;49.492;8.474;2022-08-14T01:36:28;5.68;;;4.07;;
6143;SDS011;3103;49.492;8.474;2022-08-14T01:39:10;5.25;;;4.07;;
6143;SDS011;3103;49.492;8.474;2022-08-14T01:41:40;5.20;;;4.03;;
6143;SDS011;3103;49.492;8.474;2022-08-14T01:44:10;6.57;;;4.57;;
6143;SDS011;3103;49.492;8.474;2022-08-14T01:47:00;7.70;;;4.57;;
6143;SDS011;3103;49.492;8.474;2022-08-14T01:49:31;4.20;;;3.63;;
6143;SDS011;3103;49.492;8.474;2022-08-14T01:52:01;5.68;;;4.40;;
6143;SDS011;3103;49.492;8.474;2022-08-14T01:54:34;5.88;;;5.10;;
6143;SDS011;3103;49.492;8.474;2022-08-14T01:57:04;5.95;;;4.97;;
6143;SDS011;3103;49.492;8.474;2022-08-14T01:59:37;5.43;;;3.80;;
6143;SDS011;3103;49.492;8.474;2022-08-14T02:02:09;7.18;;;4.30;;
6143;SDS011;3103;49.492;8.474;2022-08-14T02:04:45;5.35;;;4.35;;
6143;SDS011;3103;49.492;8.474;2022-08-14T02:07:23;11.30;;;4.25;;
6143;SDS011;3103;49.492;8.474;2022-08-14T02:10:10;8.90;;;4.50;;
6143;SDS011;3103;49.492;8.474;2022-08-14T02:12:42;7.15;;;3.92;;
6143;SDS011;3103;49.492;8.474;2022-08-14T02:15:23;5.20;;;4.00;;
6143;SDS011;3103;49.492;8.474;2022-08-14T02:17:51;4.93;;;4.13;;
6143;SDS011;3103;49.492;8.474;2022-08-14T02:20:18;5.10;;;3.92;;
6143;SDS011;3103;49.492;8.474;2022-08-14T02:22:49;4.28;;;3.70;;
6143;SDS011;3103;49.492;8.474;2022-08-14T02:25:20;4.80;;;4.30;;
6143;SDS011;3103;49.492;8.474;2022-08-14T02:27:51;4.75;;;3.90;;
6143;SDS011;3103;49.492;8.474;2022-08-14T02:30:41;6.53;;;4.10;;
6143;SDS011;3103;49.492;8.474;2022-08-14T02:33:08;6.75;;;3.67;;
6143;SDS011;3103;49.492;8.474;2022-08-14T02:35:38;4.68;;;4.25;;
6143;SDS011;3103;49.492;8.474;2022-08-14T02:38:08;5.38;;;4.00;;
6143;SDS011;3103;49.492;8.474;2022-08-14T02:40:46;6.70;;;3.97;;
6143;SDS011;3103;49.492;8.474;2022-08-14T02:43:15;6.97;;;3.95;;
6143;SDS011;3103;49.492;8.474;2022-08-14T02:45:48;6.07;;;4.15;;
6143;SDS011;3103;49.492;8.474;2022-08-14T02:48:15;6.00;;;3.90;;
6143;SDS011;3103;49.492;8.474;2022-08-14T02:51:03;3.95;;;3.40;;
6143;SDS011;3103;49.492;8.474;2022-08-14T02:53:34;7.50;;;3.90;;
6143;SDS011;3103;49.492;8.474;2022-08-14T02:56:08;5.60;;;3.90;;
6143;SDS011;3103;49.492;8.474;2022-08-14T02:58:56;8.30;;;4.15;;
6143;SDS011;3103;49.492;8.474;2022-08-14T03:01:27;6.25;;;4.30;;
6143;SDS011;3103;49.492;8.474;2022-08-14T03:04:10;5.28;;;4.15;;
6143;SDS011;3103;49.492;8.474;2022-08-14T03:06:39;6.95;;;4.38;;
6143;SDS011;3103;49.492;8.474;2022-08-14T03:09:28;6.10;;;4.65;;
6143;SDS011;3103;49.492;8.474;2022-08-14T03:12:15;7.22;;;5.65;;
6143;SDS011;3103;49.492;8.474;2022-08-14T03:14:59;6.90;;;5.85;;
6143;SDS011;3103;49.492;8.474;2022-08-14T03:17:30;9.50;;;5.63;;
6143;SDS011;3103;49.492;8.474;2022-08-14T03:20:07;11.38;;;6.15;;
6143;SDS011;3103;49.492;8.474;2022-08-14T03:22:37;6.53;;;4.65;;
6143;SDS011;3103;49.492;8.474;2022-08-14T03:25:07;7.68;;;5.85;;
6143;SDS011;3103;49.492;8.474;2022-08-14T03:27:37;9.15;;;5.95;;
6143;SDS011;3103;49.492;8.474;2022-08-14T03:30:24;8.02;;;6.13;;
6143;SDS011;3103;49.492;8.474;2022-08-14T03:33:11;8.68;;;6.57;;
6143;SDS011;3103;49.492;8.474;2022-08-14T03:35:39;9.27;;;7.30;;
6143;SDS011;3103;49.492;8.474;2022-08-14T03:38:27;8.48;;;6.53;;
6143;SDS011;3103;49.492;8.474;2022-08-14T03:41:19;7.90;;;6.47;;
6143;SDS011;3103;49.492;8.474;2022-08-14T03:43:52;7.93;;;6.05;;
6143;SDS011;3103;49.492;8.474;2022-08-14T03:46:27;8.68;;;6.10;;
6143;SDS011;3103;49.492;8.474;2022-08-14T03:49:16;10.70;;;7.10;;
6143;SDS011;3103;49.492;8.474;2022-08-14T03:51:54;9.85;;;6.47;;
6143;SDS011;3103;49.492;8.474;2022-08-14T03:54:23;10.32;;;7.45;;
6143;SDS011;3103;49.492;8.474;2022-08-14T03:56:49;13.00;;;6.93;;
6143;SDS011;3103;49.492;8.474;2022-08-14T03:59:18;11.35;;;7.82;;
6143;SDS011;3103;49.492;8.474;2022-08-14T04:01:45;10.40;;;6.70;;
6143;SDS011;3103;49.492;8.474;2022-08-14T04:04:30;11.85;;;7.35;;
6143;SDS011;3103;49.492;8.474;2022-08-14T04:06:59;10.38;;;7.43;;
6143;SDS011;3103;49.492;8.474;2022-08-14T04:09:26;8.40;;;7.07;;
6143;SDS011;3103;49.492;8.474;2022-08-14T04:11:54;12.20;;;7.53;;
6143;SDS011;3103;49.492;8.474;2022-08-14T04:14:23;17.10;;;8.20;;
6143;SDS011;3103;49.492;8.474;2022-08-14T04:16:50;11.70;;;7.68;;
6143;SDS011;3103;49.492;8.474;2022-08-14T04:19:17;11.38;;;8.40;;
6143;SDS011;3103;49.492;8.474;2022-08-14T04:21:49;12.30;;;7.95;;
6143;SDS011;3103;49.492;8.474;2022-08-14T04:24:29;15.68;;;8.13;;
6143;SDS011;3103;49.492;8.474;2022-08-14T04:27:07;11.90;;;7.90;;
6143;SDS011;3103;49.492;8.474;2022-08-14T04:29:37;16.73;;;9.05;;
6143;SDS011;3103;49.492;8.474;2022-08-14T04:32:08;15.95;;;8.55;;
6143;SDS011;3103;49.492;8.474;2022-08-14T04:34:56;15.75;;;8.95;;
6143;SDS011;3103;49.492;8.474;2022-08-14T04:37:23;13.65;;;8.85;;
6143;SDS011;3103;49.492;8.474;2022-08-14T04:40:11;9.38;;;8.18;;
6143;SDS011;3103;49.492;8.474;2022-08-14T04:42:57;12.32;;;8.30;;
6143;SDS011;3103;49.492;8.474;2022-08-14T04:45:43;17.58;;;9.15;;
6143;SDS011;3103;49.492;8.474;2022-08-14T04:48:16;15.57;;;9.40;;
6143;SDS011;3103;49.492;8.474;2022-08-14T04:51:13;12.40;;;8.85;;
6143;SDS011;3103;49.492;8.474;2022-08-14T04:53:43;13.10;;;9.25;;
6143;SDS011;3103;49.492;8.474;2022-08-14T04:56:14;15.68;;;9.60;;
6143;SDS011;3103;49.492;8.474;2022-08-14T04:59:00;15.90;;;9.20;;
6143;SDS011;3103;49.492;8.474;2022-08-14T05:01:40;12.88;;;9.30;;
6143;SDS011;3103;49.492;8.474;2022-08-14T05:04:17;14.07;;;9.57;;
6143;SDS011;3103;49.492;8.474;2022-08-14T05:06:47;11.95;;;9.05;;
6143;SDS011;3103;49.492;8.474;2022-08-14T05:09:20;14.02;;;9.73;;
6143;SDS011;3103;49.492;8.474;2022-08-14T05:11:49;15.57;;;9.90;;
6143;SDS011;3103;49.492;8.474;2022-08-14T05:14:18;15.48;;;9.63;;
6143;SDS011;3103;49.492;8.474;2022-08-14T05:17:08;12.82;;;9.73;;
6143;SDS011;3103;49.492;8.474;2022-08-14T05:19:36;11.32;;;9.32;;
6143;SDS011;3103;49.492;8.474;2022-08-14T05:22:23;12.20;;;9.43;;
6143;SDS011;3103;49.492;8.474;2022-08-14T05:24:52;16.10;;;9.07;;
6143;SDS011;3103;49.492;8.474;2022-08-14T05:27:19;13.63;;;10.13;;
6143;SDS011;3103;49.492;8.474;2022-08-14T05:29:50;16.95;;;10.27;;
6143;SDS011;3103;49.492;8.474;2022-08-14T05:32:20;13.77;;;9.85;;
6143;SDS011;3103;49.492;8.474;2022-08-14T05:34:52;15.27;;;11.07;;
6143;SDS011;3103;49.492;8.474;2022-08-14T05:37:23;17.42;;;10.48;;
6143;SDS011;3103;49.492;8.474;2022-08-14T05:39:51;15.30;;;9.70;;
6143;SDS011;3103;49.492;8.474;2022-08-14T05:42:19;13.20;;;10.02;;
6143;SDS011;3103;49.492;8.474;2022-08-14T05:44:58;13.48;;;10.38;;
6143;SDS011;3103;49.492;8.474;2022-08-14T05:47:25;15.65;;;9.90;;
6143;SDS011;3103;49.492;8.474;2022-08-14T05:50:06;16.17;;;10.70;;
6143;SDS011;3103;49.492;8.474;2022-08-14T05:52:45;15.45;;;9.65;;
6143;SDS011;3103;49.492;8.474;2022-08-14T05:55:17;14.07;;;9.82;;
6143;SDS011;3103;49.492;8.474;2022-08-14T05:57:50;16.50;;;10.77;;
6143;SDS011;3103;49.492;8.474;2022-08-14T06:00:19;13.20;;;9.27;;
6143;SDS011;3103;49.492;8.474;2022-08-14T06:02:55;13.93;;;9.90;;
6143;SDS011;3103;49.492;8.474;2022-08-14T06:05:26;15.63;;;10.77;;
6143;SDS011;3103;49.492;8.474;2022-08-14T06:07:55;15.48;;;10.45;;
6143;SDS011;3103;49.492;8.474;2022-08-14T06:10:24;15.35;;;9.55;;
6143;SDS011;3103;49.492;8.474;2022-08-14T06:12:54;14.88;;;10.07;;
6143;SDS011;3103;49.492;8.474;2022-08-14T06:15:23;12.23;;;8.35;;
6143;SDS011;3103;49.492;8.474;2022-08-14T06:17:56;14.23;;;8.73;;
6143;SDS011;3103;49.492;8.474;2022-08-14T06:20:25;17.23;;;8.30;;
6143;SDS011;3103;49.492;8.474;2022-08-14T06:22:54;12.77;;;8.15;;
6143;SDS011;3103;49.492;8.474;2022-08-14T06:25:22;10.40;;;8.50;;
6143;SDS011;3103;49.492;8.474;2022-08-14T06:27:50;15.88;;;8.50;;
6143;SDS011;3103;49.492;8.474;2022-08-14T06:30:18;12.48;;;8.88;;
6143;SDS011;3103;49.492;8.474;2022-08-14T06:32:48;11.55;;;9.00;;
6143;SDS011;3103;49.492;8.474;2022-08-14T06:35:18;10.85;;;8.45;;
6143;SDS011;3103;49.492;8.474;2022-08-14T06:37:52;13.75;;;7.97;;
6143;SDS011;3103;49.492;8.474;2022-08-14T06:40:31;8.40;;;7.50;;
6143;SDS011;3103;49.492;8.474;2022-08-14T06:43:00;11.02;;;7.57;;
6143;SDS011;3103;49.492;8.474;2022-08-14T06:45:33;9.70;;;7.90;;
6143;SDS011;3103;49.492;8.474;2022-08-14T06:48:04;12.07;;;7.45;;
6143;SDS011;3103;49.492;8.474;2022-08-14T06:51:00;10.55;;;7.70;;
6143;SDS011;3103;49.492;8.474;2022-08-14T06:53:28;8.25;;;7.45;;
6143;SDS011;3103;49.492;8.474;2022-08-14T06:55:55;12.70;;;7.22;;
6143;SDS011;3103;49.492;8.474;2022-08-14T06:58:28;8.75;;;6.65;;
6143;SDS011;3103;49.492;8.474;2022-08-14T07:00:57;10.18;;;6.65;;
6143;SDS011;3103;49.492;8.474;2022-08-14T07:03:54;9.02;;;7.10;;
6143;SDS011;3103;49.492;8.474;2022-08-14T07:06:50;8.70;;;6.53;;
6143;SDS011;3103;49.492;8.474;2022-08-14T07:09:25;8.35;;;6.72;;
6143;SDS011;3103;49.492;8.474;2022-08-14T07:11:53;13.85;;;7.22;;
6143;SDS011;3103;49.492;8.474;2022-08-14T07:14:21;8.75;;;7.13;;
6143;SDS011;3103;49.492;8.474;2022-08-14T07:16:48;8.18;;;6.68;;
6143;SDS011;3103;49.492;8.474;2022-08-14T07:19:17;8.80;;;6.13;;
6143;SDS011;3103;49.492;8.474;2022-08-14T07:21:46;8.93;;;7.15;;
6143;SDS011;3103;49.492;8.474;2022-08-14T07:24:13;8.90;;;6.50;;
6143;SDS011;3103;49.492;8.474;2022-08-14T07:26:56;9.98;;;6.30;;
6143;SDS011;3103;49.492;8.474;2022-08-14T07:29:24;8.82;;;6.70;;
6143;SDS011;3103;49.492;8.474;2022-08-14T07:31:54;9.43;;;6.20;;
6143;SDS011;3103;49.492;8.474;2022-08-14T07:34:21;7.45;;;6.38;;
6143;SDS011;3103;49.492;8.474;2022-08-14T07:37:06;11.13;;;6.10;;
6143;SDS011;3103;49.492;8.474;2022-08-14T07:39:35;10.82;;;5.82;;
6143;SDS011;3103;49.492;8.474;2022-08-14T07:42:04;7.50;;;6.13;;
6143;SDS011;3103;49.492;8.474;2022-08-14T07:44:32;7.47;;;5.90;;
6143;SDS011;3103;49.492;8.474;2022-08-14T07:47:12;6.40;;;5.45;;
6143;SDS011;3103;49.492;8.474;2022-08-14T07:49:43;6.15;;;5.55;;
6143;SDS011;3103;49.492;8.474;2022-08-14T07:52:29;6.90;;;5.32;;
6143;SDS011;3103;49.492;8.474;2022-08-14T07:54:57;6.15;;;4.93;;
6143;SDS011;3103;49.492;8.474;2022-08-14T07:57:25;5.70;;;5.10;;
6143;SDS011;3103;49.492;8.474;2022-08-14T07:59:53;6.35;;;5.72;;
6143;SDS011;3103;49.492;8.474;2022-08-14T08:02:20;7.18;;;5.45;;
6143;SDS011;3103;49.492;8.474;2022-08-14T08:04:49;6.28;;;5.22;;
6143;SDS011;3103;49.492;8.474;2022-08-14T08:07:24;12.00;;;4.90;;
6143;SDS011;3103;49.492;8.474;2022-08-14T08:09:55;6.07;;;5.20;;
6143;SDS011;3103;49.492;8.474;2022-08-14T08:12:23;6.72;;;4.50;;
6143;SDS011;3103;49.492;8.474;2022-08-14T08:14:55;6.80;;;5.93;;
6143;SDS011;3103;49.492;8.474;2022-08-14T08:17:36;5.70;;;5.10;;
6143;SDS011;3103;49.492;8.474;2022-08-14T08:20:20;6.40;;;4.93;;
6143;SDS011;3103;49.492;8.474;2022-08-14T08:22:53;7.55;;;4.90;;
6143;SDS011;3103;49.492;8.474;2022-08-14T08:25:27;5.47;;;4.82;;
6143;SDS011;3103;49.492;8.474;2022-08-14T08:28:00;6.47;;;5.15;;
6143;SDS011;3103;49.492;8.474;2022-08-14T08:30:34;7.57;;;4.70;;
6143;SDS011;3103;49.492;8.474;2022-08-14T08:33:14;6.15;;;5.00;;
6143;SDS011;3103;49.492;8.474;2022-08-14T08:35:43;7.25;;;5.13;;
6143;SDS011;3103;49.492;8.474;2022-08-14T08:38:17;5.05;;;4.55;;
6143;SDS011;3103;49.492;8.474;2022-08-14T08:41:05;6.38;;;4.35;;
6143;SDS011;3103;49.492;8.474;2022-08-14T08:43:36;6.25;;;4.35;;
6143;SDS011;3103;49.492;8.474;2022-08-14T08:46:05;5.97;;;4.80;;
6143;SDS011;3103;49.492;8.474;2022-08-14T08:48:49;4.75;;;4.22;;
6143;SDS011;3103;49.492;8.474;2022-08-14T08:54:18;4.88;;;4.40;;
6143;SDS011;3103;49.492;8.474;2022-08-14T08:56:56;5.80;;;5.30;;
6143;SDS011;3103;49.492;8.474;2022-08-14T08:59:27;5.60;;;4.72;;
6143;SDS011;3103;49.492;8.474;2022-08-14T09:02:04;4.85;;;4.35;;
6143;SDS011;3103;49.492;8.474;2022-08-14T09:04:36;4.90;;;4.07;;
6143;SDS011;3103;49.492;8.474;2022-08-14T09:07:20;4.50;;;4.10;;
6143;SDS011;3103;49.492;8.474;2022-08-14T09:09:52;6.95;;;3.50;;
6143;SDS011;3103;49.492;8.474;2022-08-14T09:12:26;4.95;;;3.75;;
6143;SDS011;3103;49.492;8.474;2022-08-14T09:15:03;3.85;;;3.53;;
6143;SDS011;3103;49.492;8.474;2022-08-14T09:17:37;4.57;;;4.00;;
6143;SDS011;3103;49.492;8.474;2022-08-14T09:20:11;4.28;;;3.58;;
6143;SDS011;3103;49.492;8.474;2022-08-14T09:22:51;7.00;;;3.60;;
6143;SDS011;3103;49.492;8.474;2022-08-14T09:25:20;11.45;;;3.10;;
6143;SDS011;3103;49.492;8.474;2022-08-14T09:28:07;3.75;;;3.35;;
6143;SDS011;3103;49.492;8.474;2022-08-14T09:30:37;6.72;;;3.40;;
6143;SDS011;3103;49.492;8.474;2022-08-14T09:33:10;3.42;;;3.13;;
6143;SDS011;3103;49.492;8.474;2022-08-14T09:50:22;4.18;;;2.83;;
6143;SDS011;3103;49.492;8.474;2022-08-14T09:52:59;4.70;;;3.30;;
6143;SDS011;3103;49.492;8.474;2022-08-14T09:55:31;3.25;;;2.95;;
6143;SDS011;3103;49.492;8.474;2022-08-14T09:58:11;5.03;;;3.30;;
6143;SDS011;3103;49.492;8.474;2022-08-14T10:00:46;4.35;;;3.30;;
6143;SDS011;3103;49.492;8.474;2022-08-14T10:03:27;3.55;;;3.25;;
6143;SDS011;3103;49.492;8.474;2022-08-14T10:06:07;4.40;;;3.20;;
6143;SDS011;3103;49.492;8.474;2022-08-14T10:09:13;3.58;;;3.08;;
6143;SDS011;3103;49.492;8.474;2022-08-14T10:11:53;3.72;;;2.85;;
6143;SDS011;3103;49.492;8.474;2022-08-14T10:14:28;4.32;;;3.58;;
6143;SDS011;3103;49.492;8.474;2022-08-14T10:17:02;3.75;;;3.25;;
6143;SDS011;3103;49.492;8.474;2022-08-14T10:19:34;4.03;;;3.10;;
6143;SDS011;3103;49.492;8.474;2022-08-14T10:22:12;3.22;;;2.92;;
6143;SDS011;3103;49.492;8.474;2022-08-14T10:25:08;9.57;;;3.03;;
6143;SDS011;3103;49.492;8.474;2022-08-14T10:27:42;3.03;;;2.72;;
6143;SDS011;3103;49.492;8.474;2022-08-14T10:30:14;8.52;;;2.90;;
6143;SDS011;3103;49.492;8.474;2022-08-14T10:32:51;2.90;;;2.55;;
6143;SDS011;3103;49.492;8.474;2022-08-14T10:35:21;3.55;;;3.03;;
6143;SDS011;3103;49.492;8.474;2022-08-14T10:37:59;5.18;;;2.90;;
6143;SDS011;3103;49.492;8.474;2022-08-14T10:40:27;8.75;;;2.90;;
6143;SDS011;3103;49.492;8.474;2022-08-14T10:43:15;3.85;;;2.60;;
6143;SDS011;3103;49.492;8.474;2022-08-14T10:45:52;5.45;;;3.53;;
6143;SDS011;3103;49.492;8.474;2022-08-14T10:48:40;3.00;;;2.70;;
6143;SDS011;3103;49.492;8.474;2022-08-14T10:51:11;3.40;;;2.92;;
6143;SDS011;3103;49.492;8.474;2022-08-14T10:53:42;3.22;;;2.60;;
6143;SDS011;3103;49.492;8.474;2022-08-14T10:56:31;5.32;;;2.50;;
6143;SDS011;3103;49.492;8.474;2022-08-14T11:01:35;2.88;;;2.67;;
6143;SDS011;3103;49.492;8.474;2022-08-14T11:04:18;2.97;;;2.42;;
6143;SDS011;3103;49.492;8.474;2022-08-14T11:06:53;2.10;;;2.00;;
6143;SDS011;3103;49.492;8.474;2022-08-14T11:09:21;2.75;;;2.55;;
6143;SDS011;3103;49.492;8.474;2022-08-14T11:11:54;4.32;;;2.40;;
6143;SDS011;3103;49.492;8.474;2022-08-14T11:14:48;4.65;;;2.17;;
6143;SDS011;3103;49.492;8.474;2022-08-14T11:17:26;2.40;;;2.25;;
6143;SDS011;3103;49.492;8.474;2022-08-14T11:19:58;4.70;;;2.50;;
6143;SDS011;3103;49.492;8.474;2022-08-14T11:22:30;3.33;;;2.47;;
6143;SDS011;3103;49.492;8.474;2022-08-14T11:25:18;7.85;;;2.70;;
6143;SDS011;3103;49.492;8.474;2022-08-14T11:27:50;4.78;;;2.78;;
6143;SDS011;3103;49.492;8.474;2022-08-14T11:30:19;4.75;;;2.42;;
6143;SDS011;3103;49.492;8.474;2022-08-14T11:33:07;2.45;;;2.22;;
6143;SDS011;3103;49.492;8.474;2022-08-14T11:35:36;3.40;;;2.50;;
6143;SDS011;3103;49.492;8.474;2022-08-14T11:38:14;2.60;;;2.25;;
6143;SDS011;3103;49.492;8.474;2022-08-14T11:40:42;2.70;;;2.40;;
6143;SDS011;3103;49.492;8.474;2022-08-14T11:43:13;3.78;;;2.55;;
6143;SDS011;3103;49.492;8.474;2022-08-14T11:45:44;3.13;;;2.55;;
6143;SDS011;3103;49.492;8.474;2022-08-14T11:51:00;2.55;;;2.35;;
6143;SDS011;3103;49.492;8.474;2022-08-14T11:53:39;2.80;;;2.60;;
6143;SDS011;3103;49.492;8.474;2022-08-14T11:56:07;5.45;;;2.85;;
6143;SDS011;3103;49.492;8.474;2022-08-14T11:58:36;4.35;;;2.67;;
6143;SDS011;3103;49.492;8.474;2022-08-14T12:01:05;2.72;;;2.50;;
6143;SDS011;3103;49.492;8.474;2022-08-14T12:03:35;3.30;;;2.33;;
6143;SDS011;3103;49.492;8.474;2022-08-14T12:06:23;2.75;;;2.55;;
6143;SDS011;3103;49.492;8.474;2022-08-14T12:09:05;2.53;;;2.33;;
6143;SDS011;3103;49.492;8.474;2022-08-14T12:11:39;4.57;;;2.20;;
6143;SDS011;3103;49.492;8.474;2022-08-14T12:14:12;3.53;;;2.40;;
6143;SDS011;3103;49.492;8.474;2022-08-14T12:17:00;2.88;;;2.60;;
6143;SDS011;3103;49.492;8.474;2022-08-14T12:19:30;2.33;;;2.13;;
6143;SDS011;3103;49.492;8.474;2022-08-14T12:22:01;5.45;;;2.65;;
6143;SDS011;3103;49.492;8.474;2022-08-14T12:24:28;2.60;;;2.40;;
6143;SDS011;3103;49.492;8.474;2022-08-14T12:27:05;2.95;;;2.70;;
6143;SDS011;3103;49.492;8.474;2022-08-14T12:29:32;5.13;;;2.35;;
6143;SDS011;3103;49.492;8.474;2022-08-14T12:32:01;5.10;;;2.60;;
6143;SDS011;3103;49.492;8.474;2022-08-14T12:34:38;6.40;;;2.60;;
6143;SDS011;3103;49.492;8.474;2022-08-14T12:37:10;2.90;;;2.60;;
6143;SDS011;3103;49.492;8.474;2022-08-14T12:39:37;2.50;;;2.30;;
6143;SDS011;3103;49.492;8.474;2022-08-14T12:42:06;4.30;;;2.67;;
6143;SDS011;3103;49.492;8.474;2022-08-14T12:44:34;2.92;;;2.33;;
6143;SDS011;3103;49.492;8.474;2022-08-14T12:47:10;2.55;;;2.35;;
6143;SDS011;3103;49.492;8.474;2022-08-14T12:49:49;2.50;;;2.30;;
6143;SDS011;3103;49.492;8.474;2022-08-14T12:52:34;4.25;;;2.47;;
6143;SDS011;3103;49.492;8.474;2022-08-14T12:55:25;2.65;;;2.45;;
6143;SDS011;3103;49.492;8.474;2022-08-14T12:57:58;5.63;;;2.40;;
6143;SDS011;3103;49.492;8.474;2022-08-14T13:00:46;2.92;;;2.45;;
6143;SDS011;3103;49.492;8.474;2022-08-14T13:03:35;2.58;;;2.38;;
6143;SDS011;3103;49.492;8.474;2022-08-14T13:06:03;2.60;;;2.40;;
6143;SDS011;3103;49.492;8.474;2022-08-14T13:08:30;3.38;;;2.53;;
6143;SDS011;3103;49.492;8.474;2022-08-14T13:10:59;4.80;;;2.70;;
6143;SDS011;3103;49.492;8.474;2022-08-14T13:13:28;2.47;;;2.28;;
6143;SDS011;3103;49.492;8.474;2022-08-14T13:16:00;2.50;;;2.30;;
6143;SDS011;3103;49.492;8.474;2022-08-14T13:18:46;3.65;;;2.70;;
6143;SDS011;3103;49.492;8.474;2022-08-14T13:21:24;3.20;;;2.55;;
6143;SDS011;3103;49.492;8.474;2022-08-14T13:23:51;2.53;;;2.33;;
6143;SDS011;3103;49.492;8.474;2022-08-14T13:26:22;2.55;;;2.35;;
6143;SDS011;3103;49.492;8.474;2022-08-14T13:28:53;2.75;;;2.55;;
6143;SDS011;3103;49.492;8.474;2022-08-14T13:31:29;4.85;;;2.55;;
6143;SDS011;3103;49.492;8.474;2022-08-14T13:33:59;4.55;;;2.58;;
6143;SDS011;3103;49.492;8.474;2022-08-14T13:36:26;2.42;;;2.22;;
6143;SDS011;3103;49.492;8.474;2022-08-14T13:39:14;3.95;;;2.65;;
6143;SDS011;3103;49.492;8.474;2022-08-14T13:41:46;2.95;;;2.47;;
6143;SDS011;3103;49.492;8.474;2022-08-14T13:44:21;3.42;;;2.70;;
6143;SDS011;3103;49.492;8.474;2022-08-14T13:46:52;2.70;;;2.50;;
6143;SDS011;3103;49.492;8.474;2022-08-14T13:49:18;2.90;;;2.33;;
6143;SDS011;3103;49.492;8.474;2022-08-14T13:51:49;2.40;;;2.20;;
6143;SDS011;3103;49.492;8.474;2022-08-14T13:54:18;2.80;;;2.50;;
6143;SDS011;3103;49.492;8.474;2022-08-14T13:56:46;3.13;;;2.30;;
6143;SDS011;3103;49.492;8.474;2022-08-14T13:59:14;3.38;;;2.40;;
6143;SDS011;3103;49.492;8.474;2022-08-14T14:02:04;2.92;;;2.40;;
6143;SDS011;3103;49.492;8.474;2022-08-14T14:04:34;5.15;;;2.80;;
6143;SDS011;3103;49.492;8.474;2022-08-14T14:07:06;2.50;;;2.20;;
6143;SDS011;3103;49.492;8.474;2022-08-14T14:09:40;3.22;;;2.63;;
6143;SDS011;3103;49.492;8.474;2022-08-14T14:12:18;4.70;;;2.10;;
6143;SDS011;3103;49.492;8.474;2022-08-14T14:15:06;2.60;;;2.40;;
6143;SDS011;3103;49.492;8.474;2022-08-14T14:17:35;3.75;;;2.40;;
6143;SDS011;3103;49.492;8.474;2022-08-14T14:20:05;3.17;;;2.20;;
6143;SDS011;3103;49.492;8.474;2022-08-14T14:22:56;3.13;;;2.42;;
6143;SDS011;3103;49.492;8.474;2022-08-14T14:25:28;4.63;;;2.70;;
6143;SDS011;3103;49.492;8.474;2022-08-14T14:28:15;2.40;;;2.05;;
6143;SDS011;3103;49.492;8.474;2022-08-14T14:30:50;2.65;;;2.10;;
6143;SDS011;3103;49.492;8.474;2022-08-14T14:33:23;3.70;;;2.53;;
6143;SDS011;3103;49.492;8.474;2022-08-14T14:36:10;2.45;;;2.25;;
6143;SDS011;3103;49.492;8.474;2022-08-14T14:38:49;3.90;;;2.55;;
6143;SDS011;3103;49.492;8.474;2022-08-14T14:41:18;4.82;;;2.42;;
6143;SDS011;3103;49.492;8.474;2022-08-14T14:43:48;2.85;;;2.55;;
6143;SDS011;3103;49.492;8.474;2022-08-14T14:46:17;3.47;;;2.30;;
6143;SDS011;3103;49.492;8.474;2022-08-14T14:48:46;4.50;;;2.10;;
6143;SDS011;3103;49.492;8.474;2022-08-14T14:51:20;2.95;;;2.40;;
6143;SDS011;3103;49.492;8.474;2022-08-14T14:53:47;2.10;;;1.90;;
6143;SDS011;3103;49.492;8.474;2022-08-14T14:56:14;2.80;;;2.38;;
6143;SDS011;3103;49.492;8.474;2022-08-14T14:59:02;2.47;;;2.22;;
6143;SDS011;3103;49.492;8.474;2022-08-14T15:01:30;4.63;;;2.47;;
6143;SDS011;3103;49.492;8.474;2022-08-14T15:04:01;2.40;;;2.20;;
6143;SDS011;3103;49.492;8.474;2022-08-14T15:06:45;2.88;;;2.38;;
6143;SDS011;3103;49.492;8.474;2022-08-14T15:09:14;2.60;;;2.40;;
6143;SDS011;3103;49.492;8.474;2022-08-14T15:11:44;2.65;;;2.20;;
6143;SDS011;3103;49.492;8.474;2022-08-14T15:14:13;2.45;;;2.20;;
6143;SDS011;3103;49.492;8.474;2022-08-14T15:17:00;2.28;;;2.08;;
6143;SDS011;3103;49.492;8.474;2022-08-14T15:19:27;3.25;;;2.30;;
6143;SDS011;3103;49.492;8.474;2022-08-14T15:21:54;2.53;;;2.25;;
6143;SDS011;3103;49.492;8.474;2022-08-14T15:24:21;3.58;;;2.28;;
6143;SDS011;3103;49.492;8.474;2022-08-14T15:26:52;2.28;;;2.08;;
6143;SDS011;3103;49.492;8.474;2022-08-14T15:29:21;3.88;;;2.13;;
6143;SDS011;3103;49.492;8.474;2022-08-14T15:31:50;3.28;;;2.55;;
6143;SDS011;3103;49.492;8.474;2022-08-14T15:34:19;2.50;;;2.30;;
6143;SDS011;3103;49.492;8.474;2022-08-14T15:37:07;2.47;;;2.28;;
6143;SDS011;3103;49.492;8.474;2022-08-14T15:39:40;3.15;;;2.25;;
6143;SDS011;3103;49.492;8.474;2022-08-14T15:42:07;6.75;;;2.50;;
6143;SDS011;3103;49.492;8.474;2022-08-14T15:44:42;2.45;;;2.25;;
6143;SDS011;3103;49.492;8.474;2022-08-14T15:47:31;2.55;;;2.10;;
6143;SDS011;3103;49.492;8.474;2022-08-14T15:50:03;2.30;;;2.10;;
6143;SDS011;3103;49.492;8.474;2022-08-14T15:52:35;2.58;;;2.28;;
6143;SDS011;3103;49.492;8.474;2022-08-14T15:55:07;2.65;;;2.38;;
6143;SDS011;3103;49.492;8.474;2022-08-14T15:57:38;6.85;;;3.00;;
6143;SDS011;3103;49.492;8.474;2022-08-14T16:00:25;3.20;;;2.40;;
6143;SDS011;3103;49.492;8.474;2022-08-14T16:03:15;2.50;;;2.28;;
6143;SDS011;3103;49.492;8.474;2022-08-14T16:06:02;3.42;;;2.17;;
6143;SDS011;3103;49.492;8.474;2022-08-14T16:08:41;2.65;;;2.30;;
6143;SDS011;3103;49.492;8.474;2022-08-14T16:11:09;2.30;;;2.10;;
6143;SDS011;3103;49.492;8.474;2022-08-14T16:13:37;4.43;;;2.42;;
6143;SDS011;3103;49.492;8.474;2022-08-14T16:16:09;2.65;;;2.45;;
6143;SDS011;3103;49.492;8.474;2022-08-14T16:18:59;3.95;;;2.95;;
6143;SDS011;3103;49.492;8.474;2022-08-14T16:21:26;3.30;;;2.90;;
6143;SDS011;3103;49.492;8.474;2022-08-14T16:23:58;2.53;;;2.33;;
6143;SDS011;3103;49.492;8.474;2022-08-14T16:26:25;2.60;;;2.40;;